Eppards Point, Illinois
Current Conditions -  °F | °C
As of 7:55 AM on Friday 24 Oct 2014 (Local Time) from KPNT Reporting Station
Haze Haze  
Wind Chill: 44°   Ceiling: Unl
Heat Index: 44°   Visibility: 4mi
Dew Point: 44°   Wind: 0mph
Humidity: 99%   Direction: NA
Pressure: 30.09"   Gusts: NA
Location:  40.8602°N, 88.6284°W
Report Text: KPNT 241255Z AUTO 00000KT 4SM BR CLR 07/07 A3009 RMK AO2 T00680066
Loading
Personal Weather Stations






























Interactive Weather Map
Tropical Storm Tracking
New forecast layout! Learn more

10-Day Weather Forecast

Advertisements
Track Severe Weather on mobile